createdAt,value
2019-05-21T00:00:29.629Z,23.90
2019-05-21T00:03:28.406Z,25.15
2019-05-21T00:06:25.751Z,24.32
2019-05-21T00:09:23.363Z,24.00
2019-05-21T00:12:20.134Z,24.47
2019-05-21T00:15:16.561Z,23.95
2019-05-21T00:18:12.689Z,25.85
2019-05-21T00:21:08.997Z,25.48
2019-05-21T00:24:04.734Z,26.97
2019-05-21T00:27:02.208Z,28.23
2019-05-21T00:30:33.349Z,26.75
2019-05-21T00:34:04.307Z,26.48
2019-05-21T00:37:38.100Z,26.30
2019-05-21T00:41:08.452Z,26.73
2019-05-21T00:44:06.835Z,28.75
2019-05-21T00:47:05.160Z,26.25
2019-05-21T00:50:03.471Z,27.37
2019-05-21T00:53:00.942Z,25.48
2019-05-21T00:55:58.874Z,26.68
2019-05-21T00:58:57.117Z,28.80
2019-05-21T01:01:52.622Z,29.98
2019-05-21T01:04:59.542Z,30.43
2019-05-21T01:07:44.092Z,31.30
2019-05-21T01:10:40.744Z,28.38
2019-05-21T01:13:37.842Z,28.02
2019-05-21T01:16:34.070Z,25.88
2019-05-21T01:19:29.661Z,26.85
2019-05-21T01:22:25.371Z,26.23
2019-05-21T01:25:20.755Z,25.35
2019-05-21T01:28:16.488Z,25.35
2019-05-21T01:31:11.949Z,26.00
2019-05-21T01:34:09.557Z,25.80
2019-05-21T01:37:03.810Z,27.00
2019-05-21T01:39:59.514Z,28.92
2019-05-21T01:42:54.844Z,29.40
2019-05-21T01:45:50.182Z,28.87
2019-05-21T01:48:45.546Z,28.65
2019-05-21T01:51:41.087Z,28.35
2019-05-21T01:54:36.543Z,29.48
2019-05-21T01:57:31.964Z,28.32
2019-05-21T02:00:27.368Z,29.12
2019-05-21T02:03:22.535Z,31.05
2019-05-21T02:06:17.981Z,31.70
2019-05-21T02:09:14.237Z,31.02
2019-05-21T02:12:10.957Z,31.52
2019-05-21T02:15:06.770Z,32.53
2019-05-21T02:18:02.100Z,33.55
2019-05-21T02:20:57.613Z,33.45
2019-05-21T02:23:53.341Z,34.45
2019-05-21T02:26:51.520Z,37.30
2019-05-21T02:29:47.180Z,38.28
2019-05-21T02:32:42.660Z,36.90
2019-05-21T02:35:53.783Z,36.75
2019-05-21T02:38:34.741Z,38.78
2019-05-21T02:41:31.791Z,38.80
2019-05-21T02:44:27.668Z,38.45
2019-05-21T02:47:23.732Z,40.48
2019-05-21T02:50:20.988Z,38.48
2019-05-21T02:53:17.125Z,38.78
2019-05-21T02:56:14.477Z,38.25
2019-05-21T02:59:11.369Z,39.23
2019-05-21T03:02:16.416Z,40.45
2019-05-21T03:05:13.542Z,40.38
2019-05-21T03:08:10.075Z,42.03
2019-05-21T03:11:05.777Z,43.08
2019-05-21T03:14:01.324Z,42.88
2019-05-21T03:16:56.384Z,44.67
2019-05-21T03:19:51.801Z,44.77
2019-05-21T03:22:49.351Z,42.67
2019-05-21T03:25:46.425Z,42.65
2019-05-21T03:28:44.372Z,44.13
2019-05-21T03:31:41.861Z,46.35
2019-05-21T03:34:39.324Z,45.75
2019-05-21T03:37:35.926Z,42.70
2019-05-21T03:40:32.983Z,43.65
2019-05-21T03:43:31.334Z,43.73
2019-05-21T03:46:28.638Z,41.85
2019-05-21T03:49:26.764Z,40.98
2019-05-21T03:52:22.243Z,38.75
2019-05-21T03:55:20.393Z,38.42
2019-05-21T03:58:17.458Z,36.13
2019-05-21T04:01:14.089Z,33.75
2019-05-21T04:04:10.507Z,32.88
2019-05-21T04:07:07.989Z,38.70
2019-05-21T04:10:07.816Z,37.25
2019-05-21T04:13:11.646Z,37.78
2019-05-21T04:16:18.042Z,36.48
2019-05-21T04:19:31.633Z,36.85
2019-05-21T04:22:28.086Z,36.23
2019-05-21T04:25:24.091Z,35.33
2019-05-21T04:28:20.110Z,34.75
2019-05-21T04:31:16.132Z,34.88
2019-05-21T04:34:12.942Z,39.10
2019-05-21T04:37:11.283Z,37.78
2019-05-21T04:40:05.986Z,45.63
2019-05-21T04:43:02.778Z,45.92
2019-05-21T04:46:07.333Z,50.70
2019-05-21T04:49:03.468Z,52.05
2019-05-21T04:52:07.758Z,52.30
2019-05-21T04:55:12.458Z,49.90
2019-05-21T04:58:28.751Z,48.63
2019-05-21T05:01:26.771Z,40.80
2019-05-21T05:04:33.135Z,45.95
2019-05-21T05:07:37.325Z,47.75
2019-05-21T05:10:34.503Z,39.67
2019-05-21T05:13:32.714Z,39.98
2019-05-21T05:17:22.020Z,38.98
2019-05-21T05:20:22.124Z,33.67
2019-05-21T05:23:24.975Z,33.33
2019-05-21T05:26:25.977Z,34.63
2019-05-21T05:29:23.092Z,30.05
2019-05-21T05:32:20.014Z,29.90
2019-05-21T05:35:19.314Z,29.75
2019-05-21T05:38:18.807Z,36.00
2019-05-21T05:41:19.826Z,28.65
2019-05-21T05:44:51.561Z,27.32
2019-05-21T05:48:24.307Z,28.02
2019-05-21T05:51:22.170Z,28.10
2019-05-21T05:54:32.965Z,28.07
2019-05-21T05:57:42.271Z,30.10
2019-05-21T06:00:37.657Z,32.03
2019-05-21T06:03:34.644Z,29.70
2019-05-21T06:06:35.955Z,26.93
2019-05-21T06:09:32.707Z,26.30
2019-05-21T06:12:29.041Z,30.12
2019-05-21T06:15:25.540Z,26.80
2019-05-21T06:18:22.378Z,26.50
2019-05-21T06:21:21.994Z,24.70
2019-05-21T06:24:19.305Z,23.98
2019-05-21T06:27:15.281Z,24.18
2019-05-21T06:30:11.900Z,25.08
2019-05-21T06:33:06.989Z,24.47
2019-05-21T06:36:04.398Z,27.48
2019-05-21T06:39:02.229Z,25.77
2019-05-21T06:41:58.180Z,22.10
2019-05-21T06:44:54.327Z,25.82
2019-05-21T06:47:52.517Z,26.73
2019-05-21T06:50:48.225Z,28.90
2019-05-21T06:53:43.635Z,26.42
2019-05-21T06:56:38.746Z,25.88
2019-05-21T06:59:33.902Z,25.80
2019-05-21T07:02:29.655Z,28.30
2019-05-21T07:05:25.105Z,27.52
2019-05-21T07:08:34.791Z,27.62
2019-05-21T07:11:23.476Z,23.18
2019-05-21T07:14:18.887Z,22.48
2019-05-21T07:17:14.837Z,23.83
2019-05-21T07:20:12.231Z,23.00
2019-05-21T07:23:11.282Z,19.98
2019-05-21T07:26:05.143Z,23.67
2019-05-21T07:29:01.523Z,23.85
2019-05-21T07:31:58.447Z,23.65
2019-05-21T07:35:16.207Z,22.80
2019-05-21T07:38:23.699Z,24.63
2019-05-21T07:41:20.297Z,22.17
2019-05-21T07:44:14.966Z,23.67
2019-05-21T07:47:11.324Z,22.15
2019-05-21T07:50:07.914Z,20.97
2019-05-21T07:53:03.958Z,21.60
2019-05-21T07:55:59.899Z,21.00
2019-05-21T07:58:55.383Z,21.27
2019-05-21T08:01:51.623Z,17.70
2019-05-21T08:04:47.209Z,20.72
2019-05-21T08:07:47.360Z,19.65
2019-05-21T08:10:43.677Z,18.37
2019-05-21T08:13:38.907Z,16.80
2019-05-21T08:16:34.834Z,16.02
2019-05-21T08:19:31.321Z,17.45
2019-05-21T08:22:28.491Z,18.35
2019-05-21T08:25:28.172Z,20.30
2019-05-21T08:28:24.412Z,21.85
2019-05-21T08:31:19.628Z,20.48
2019-05-21T08:34:19.763Z,21.97
2019-05-21T08:37:17.107Z,22.40
2019-05-21T08:40:13.971Z,24.98
2019-05-21T08:43:09.560Z,23.65
2019-05-21T08:46:05.059Z,22.42
2019-05-21T08:49:01.539Z,22.80
2019-05-21T08:51:57.040Z,21.05
2019-05-21T08:54:56.732Z,23.67
2019-05-21T08:58:06.194Z,23.85
2019-05-21T09:01:17.678Z,23.87
2019-05-21T09:04:15.855Z,22.27
2019-05-21T09:07:12.410Z,22.48
2019-05-21T09:10:11.999Z,23.47
2019-05-21T09:13:24.664Z,21.87
2019-05-21T09:33:44.511Z,22.48
2019-05-21T09:36:42.769Z,22.32
2019-05-21T09:39:46.344Z,22.15
2019-05-21T09:43:09.107Z,21.07
2019-05-21T09:46:14.572Z,22.07
2019-05-21T09:49:13.306Z,20.50
2019-05-21T09:52:11.659Z,19.62
2019-05-21T09:55:08.292Z,21.27
2019-05-21T09:58:22.249Z,21.40
2019-05-21T10:01:41.894Z,20.17
2019-05-21T10:04:40.423Z,21.15
2019-05-21T10:07:40.673Z,22.00
2019-05-21T10:10:38.133Z,23.07
2019-05-21T10:13:40.730Z,23.05
2019-05-21T10:16:35.920Z,20.97
2019-05-21T10:19:38.100Z,18.98
2019-05-21T10:22:36.522Z,19.50
2019-05-21T10:25:34.571Z,19.12
2019-05-21T10:28:32.822Z,20.40
2019-05-21T10:31:29.737Z,18.40
2019-05-21T10:34:25.393Z,19.32
2019-05-21T10:37:21.496Z,20.43
2019-05-21T10:40:19.653Z,20.02
2019-05-21T10:43:20.715Z,20.60
2019-05-21T10:46:19.370Z,21.02
2019-05-21T10:49:17.135Z,21.12
2019-05-21T10:52:13.921Z,21.05
2019-05-21T10:55:15.973Z,19.35
2019-05-21T10:58:14.039Z,19.30
2019-05-21T11:01:49.373Z,19.92
2019-05-21T11:05:07.747Z,19.32
2019-05-21T11:08:29.824Z,20.17
2019-05-21T11:11:39.755Z,18.70
2019-05-21T11:14:39.112Z,18.42
2019-05-21T11:17:50.064Z,18.57
2019-05-21T11:20:38.538Z,18.07
2019-05-21T11:23:38.569Z,16.12
2019-05-21T11:26:37.308Z,17.48
2019-05-21T11:29:40.016Z,16.70
2019-05-21T11:32:39.477Z,17.00
2019-05-21T11:35:37.580Z,15.10
2019-05-21T11:38:39.842Z,15.05
2019-05-21T11:41:29.611Z,17.23
2019-05-21T11:44:25.333Z,16.85
2019-05-21T11:47:30.683Z,16.62
2019-05-21T11:50:25.345Z,17.20
2019-05-21T11:53:26.372Z,16.97
2019-05-21T11:56:31.267Z,17.05
2019-05-21T11:59:27.118Z,18.35
2019-05-21T12:02:24.964Z,16.42
2019-05-21T12:05:22.841Z,17.90
2019-05-21T12:08:20.411Z,17.32
2019-05-21T12:11:53.787Z,19.35
2019-05-21T12:14:57.621Z,16.62
2019-05-21T12:17:54.345Z,15.32
2019-05-21T12:20:51.832Z,18.75
2019-05-21T12:23:47.605Z,19.32
2019-05-21T12:26:43.974Z,16.82
2019-05-21T12:29:44.646Z,16.32
2019-05-21T12:32:40.948Z,19.57
2019-05-21T12:35:37.220Z,20.50
2019-05-21T12:38:33.554Z,18.07
2019-05-21T12:41:29.961Z,16.17
2019-05-21T12:44:25.864Z,15.55
2019-05-21T12:47:22.530Z,17.60
2019-05-21T12:50:20.359Z,16.77
2019-05-21T12:53:16.818Z,17.30
2019-05-21T12:56:16.163Z,15.70
2019-05-21T12:59:10.982Z,16.55
2019-05-21T13:02:07.728Z,17.75
2019-05-21T13:05:04.087Z,19.15
2019-05-21T13:08:00.926Z,29.00
2019-05-21T13:10:57.926Z,23.52
2019-05-21T13:13:54.198Z,20.48
2019-05-21T13:16:52.282Z,19.05
2019-05-21T13:19:48.990Z,18.67
2019-05-21T13:22:45.571Z,18.77
2019-05-21T13:25:58.902Z,18.75
2019-05-21T13:29:00.653Z,18.17
2019-05-21T13:32:17.596Z,18.90
2019-05-21T13:35:16.748Z,19.77
2019-05-21T13:38:16.134Z,18.35
2019-05-21T13:41:13.584Z,18.77
2019-05-21T13:44:11.381Z,18.52
2019-05-21T13:47:07.799Z,19.80
2019-05-21T13:50:03.234Z,18.05
2019-05-21T13:52:59.150Z,19.23
2019-05-21T13:55:55.186Z,21.90
2019-05-21T13:58:51.744Z,20.57
2019-05-21T14:01:47.646Z,21.12
2019-05-21T14:04:43.274Z,21.10
2019-05-21T14:07:38.628Z,21.70
2019-05-21T14:10:34.289Z,20.48
2019-05-21T14:13:29.626Z,22.30
2019-05-21T14:16:25.673Z,22.13
2019-05-21T14:19:21.425Z,20.52
2019-05-21T14:22:19.760Z,21.10
2019-05-21T14:25:17.683Z,21.35
2019-05-21T14:28:13.097Z,22.07
2019-05-21T14:31:08.866Z,21.77
2019-05-21T14:34:04.353Z,21.07
2019-05-21T14:36:59.918Z,21.50
2019-05-21T14:39:55.417Z,21.27
2019-05-21T14:42:59.894Z,19.32
2019-05-21T14:45:47.586Z,20.70
2019-05-21T14:48:43.084Z,19.15
2019-05-21T14:51:38.662Z,18.62
2019-05-21T14:54:33.890Z,18.50
2019-05-21T14:57:29.333Z,18.75
2019-05-21T15:00:32.101Z,18.17
2019-05-21T15:03:29.490Z,18.60
2019-05-21T15:06:27.056Z,17.60
2019-05-21T15:09:22.933Z,17.52
2019-05-21T15:12:18.394Z,17.82
2019-05-21T15:15:14.436Z,16.93
2019-05-21T15:18:10.296Z,17.80
2019-05-21T15:21:16.297Z,19.17
2019-05-21T15:24:12.191Z,18.07
2019-05-21T15:27:07.751Z,19.30
2019-05-21T15:30:04.179Z,17.85
2019-05-21T15:33:00.363Z,19.30
2019-05-21T15:35:57.598Z,17.70
2019-05-21T15:38:53.726Z,16.90
2019-05-21T15:41:49.026Z,16.77
2019-05-21T15:44:44.797Z,17.02
2019-05-21T15:47:40.780Z,18.50
2019-05-21T15:50:36.405Z,17.20
2019-05-21T15:53:32.141Z,15.85
2019-05-21T15:56:29.303Z,17.60
2019-05-21T15:59:25.193Z,16.25
2019-05-21T16:02:20.758Z,16.50
2019-05-21T16:05:16.165Z,16.00
2019-05-21T16:08:12.426Z,17.48
2019-05-21T16:11:07.800Z,16.25
2019-05-21T16:14:03.060Z,16.52
2019-05-21T16:16:58.385Z,15.03
2019-05-21T16:19:54.580Z,15.68
2019-05-21T16:22:51.295Z,16.50
2019-05-21T16:25:47.526Z,15.00
2019-05-21T16:28:43.725Z,14.78
2019-05-21T16:31:39.580Z,14.50
2019-05-21T16:34:35.501Z,15.38
2019-05-21T16:37:33.854Z,14.80
2019-05-21T16:40:29.582Z,14.95
2019-05-21T16:43:24.835Z,13.20
2019-05-21T16:46:20.237Z,14.50
2019-05-21T16:49:15.289Z,14.55
2019-05-21T16:52:10.852Z,14.70
2019-05-21T16:55:07.883Z,16.15
2019-05-21T16:58:03.811Z,13.55
2019-05-21T17:00:59.344Z,14.93
2019-05-21T17:03:59.864Z,14.33
2019-05-21T17:06:50.742Z,14.78
2019-05-21T17:09:45.908Z,13.90
2019-05-21T17:12:41.401Z,13.85
2019-05-21T17:15:36.594Z,14.23
2019-05-21T17:18:31.890Z,14.80
2019-05-21T17:21:27.599Z,13.60
2019-05-21T17:24:22.927Z,13.65
2019-05-21T17:27:18.500Z,15.03
2019-05-21T17:30:15.592Z,15.75
2019-05-21T17:33:11.254Z,14.18
2019-05-21T17:36:06.291Z,13.58
2019-05-21T17:39:01.849Z,13.43
2019-05-21T17:41:58.770Z,13.83
2019-05-21T17:44:54.242Z,13.53
2019-05-21T17:47:49.955Z,13.78
2019-05-21T17:50:45.276Z,14.00
2019-05-21T17:53:40.455Z,14.07
2019-05-21T17:56:37.608Z,14.20
2019-05-21T17:59:32.815Z,14.30
2019-05-21T18:02:30.391Z,14.05
2019-05-21T18:05:26.533Z,14.07
2019-05-21T18:08:22.797Z,13.75
2019-05-21T18:11:19.564Z,13.95
2019-05-21T18:14:15.424Z,14.23
2019-05-21T18:17:14.169Z,14.50
2019-05-21T18:20:11.041Z,14.43
2019-05-21T18:23:07.227Z,14.73
2019-05-21T18:26:04.245Z,15.18
2019-05-21T18:29:01.299Z,15.05
2019-05-21T18:31:56.916Z,15.40
2019-05-21T18:34:51.949Z,15.50
2019-05-21T18:37:47.180Z,14.95
2019-05-21T18:40:42.197Z,14.80
2019-05-21T18:43:37.535Z,15.88
2019-05-21T18:46:32.743Z,15.50
2019-05-21T18:49:27.984Z,15.43
2019-05-21T18:52:24.155Z,15.20
2019-05-21T18:55:19.388Z,14.90
2019-05-21T18:58:17.103Z,15.63
2019-05-21T19:01:10.313Z,15.58
2019-05-21T19:04:06.393Z,15.13
2019-05-21T19:07:01.756Z,16.17
2019-05-21T19:10:00.738Z,14.60
2019-05-21T19:12:54.226Z,16.82
2019-05-21T19:15:49.819Z,15.35
2019-05-21T19:18:46.171Z,15.53
2019-05-21T19:21:42.181Z,15.63
2019-05-21T19:24:37.111Z,15.53
2019-05-21T19:27:32.590Z,14.60
2019-05-21T19:30:28.924Z,14.53
2019-05-21T19:33:24.238Z,13.25
2019-05-21T19:36:19.267Z,13.93
2019-05-21T19:39:13.920Z,13.53
2019-05-21T19:42:08.828Z,13.28
2019-05-21T19:45:03.825Z,13.43
2019-05-21T19:47:59.000Z,14.30
2019-05-21T19:50:54.158Z,14.40
2019-05-21T19:53:49.131Z,13.93
2019-05-21T19:56:44.279Z,15.90
2019-05-21T19:59:40.628Z,14.03
2019-05-21T20:02:36.400Z,15.58
2019-05-21T20:05:31.753Z,18.10
2019-05-21T20:08:27.377Z,15.43
2019-05-21T20:11:22.823Z,15.30
2019-05-21T20:14:17.627Z,15.38
2019-05-21T20:17:13.190Z,15.35
2019-05-21T20:20:08.625Z,16.90
2019-05-21T20:23:03.836Z,15.45
2019-05-21T20:25:59.767Z,16.32
2019-05-21T20:28:55.096Z,16.40
2019-05-21T20:31:50.692Z,19.23
2019-05-21T20:34:45.803Z,17.87
2019-05-21T20:37:42.093Z,24.63
2019-05-21T20:40:38.147Z,18.82
2019-05-21T20:43:33.670Z,25.32
2019-05-21T20:46:28.874Z,18.62
2019-05-21T20:49:24.165Z,17.75
2019-05-21T20:52:19.786Z,18.00
2019-05-21T20:55:15.295Z,18.07
2019-05-21T20:58:10.774Z,17.67
2019-05-21T21:01:06.751Z,17.80
2019-05-21T21:04:02.506Z,20.80
2019-05-21T21:06:57.796Z,17.95
2019-05-21T21:09:53.102Z,21.27
2019-05-21T21:12:48.817Z,19.12
2019-05-21T21:15:44.539Z,17.95
2019-05-21T21:18:39.396Z,18.12
2019-05-21T21:21:34.436Z,18.05
2019-05-21T21:24:29.522Z,18.65
2019-05-21T21:27:25.097Z,18.15
2019-05-21T21:30:20.278Z,19.48
2019-05-21T21:33:15.518Z,18.62
2019-05-21T21:36:10.575Z,20.17
2019-05-21T21:39:06.634Z,19.52
2019-05-21T21:42:02.349Z,19.45
2019-05-21T21:44:57.419Z,19.73
2019-05-21T21:47:52.733Z,20.52
2019-05-21T21:50:48.079Z,19.00
2019-05-21T21:53:43.602Z,18.87
2019-05-21T21:56:38.691Z,19.20
2019-05-21T21:59:33.717Z,18.40
2019-05-21T22:02:32.502Z,18.62
2019-05-21T22:05:28.084Z,19.60
2019-05-21T22:08:23.509Z,19.70
2019-05-21T22:11:19.149Z,19.62
2019-05-21T22:14:15.245Z,21.60
2019-05-21T22:17:13.615Z,22.30
2019-05-21T22:20:10.573Z,24.55
2019-05-21T22:23:05.658Z,24.92
2019-05-21T22:26:00.977Z,24.82
2019-05-21T22:28:56.238Z,22.80
2019-05-21T22:31:51.653Z,21.75
2019-05-21T22:34:46.604Z,23.25
2019-05-21T22:37:41.778Z,19.92
2019-05-21T22:40:36.861Z,19.62
2019-05-21T22:43:32.838Z,18.95
2019-05-21T22:46:28.044Z,18.65
2019-05-21T22:49:23.253Z,17.67
2019-05-21T22:52:18.343Z,16.57
2019-05-21T22:55:14.221Z,16.85
2019-05-21T22:58:09.338Z,16.75
2019-05-21T23:01:05.205Z,15.98
2019-05-21T23:04:00.514Z,15.55
2019-05-21T23:06:55.997Z,15.35
2019-05-21T23:09:51.245Z,15.63
2019-05-21T23:12:46.104Z,15.10
2019-05-21T23:15:41.751Z,15.65
2019-05-21T23:18:47.356Z,15.08
2019-05-21T23:22:01.223Z,16.17
2019-05-21T23:24:56.584Z,15.70
2019-05-21T23:27:51.646Z,15.75
2019-05-21T23:30:46.471Z,15.65
2019-05-21T23:33:41.809Z,15.88
2019-05-21T23:36:37.108Z,15.60
2019-05-21T23:39:34.141Z,15.13
2019-05-21T23:42:30.295Z,15.45
2019-05-21T23:45:26.024Z,16.35
2019-05-21T23:48:22.027Z,15.80
2019-05-21T23:51:19.172Z,16.30
2019-05-21T23:54:15.382Z,15.50
2019-05-21T23:57:12.611Z,14.78
